»·PEaware :: UAL515 KSFO-KPDX

UAL515 :: KSFO-KPDX

FLIGHT INFORMATION

Flight Status: Arrived
Operator:
United Airlines
More flights by this operator :: More flights under this callsign
Pilot: Doug L. (8712)
Aircraft: Boeing 787-9 Dreamliner
(B789)
More flights by this aircraft type
Origin: KSFO San Francisco Intl
United States
Destination: KPDX Portland Intl
United States
More flights between these airports :: More routes between these airports
Route: +TRUKN2 GRTFL MACHU TMBRS2
File this flight plan on PilotEdge
Remarks:
Altitude:
(Current/Filed)
38,000ft
Speed:
(Current/Filed)
450kts
Departed: 14-Jan-19 10:48 AM
Arrived: 14-Jan-19 11:57 AM
Distance/Time
Traveled:
478nm/1:09
Distance/Time
To Go:
Arrived

Flight Plot

Page will automatically refresh every two minutes.


Map Options




Map Legend


Flown Route
Filed Route
Departure Airport
Arrival Airport
Navaid (VOR, NDB)
Fix

Horizontal Profiles

Position Reports

Time Latitude Longitude Heading Altitude Ground
Speed
14-Jan-19 10:28 37.619961 -122.384533 158 26ft 0kts
14-Jan-19 10:29 37.619961 -122.384533 158 26ft 0kts
14-Jan-19 10:30 37.619961 -122.384533 158 26ft 0kts
14-Jan-19 10:31 37.619963 -122.384534 158 26ft 0kts
14-Jan-19 10:32 37.619963 -122.384534 158 26ft 0kts
14-Jan-19 10:33 37.619963 -122.384534 158 26ft 0kts
14-Jan-19 10:34 37.619963 -122.384534 158 26ft 0kts
14-Jan-19 10:35 37.619963 -122.384534 158 26ft 0kts
14-Jan-19 10:36 37.619963 -122.384534 158 26ft 0kts
14-Jan-19 10:37 37.619963 -122.384534 158 26ft 0kts
14-Jan-19 10:38 37.619963 -122.384534 158 26ft 0kts
14-Jan-19 10:39 37.620344 -122.384704 168 26ft 2kts
14-Jan-19 10:40 37.620859 -122.384878 117 26ft 1kts
14-Jan-19 10:41 37.620923 -122.385031 117 26ft 0kts
14-Jan-19 10:42 37.620922 -122.385027 117 26ft 0kts
14-Jan-19 10:43 37.619545 -122.381740 117 26ft 26kts
14-Jan-19 10:44 37.615136 -122.379714 208 26ft 33kts
14-Jan-19 10:45 37.610131 -122.382991 206 26ft 18kts
14-Jan-19 10:46 37.608961 -122.382227 27 26ft 0kts
14-Jan-19 10:47 37.640581 -122.359281 47 1927ft 185kts
14-Jan-19 10:48 37.672182 -122.301788 66 5746ft 234kts
14-Jan-19 10:49 37.711416 -122.226582 60 9701ft 271kts
14-Jan-19 10:50 37.790974 -122.214270 357 12750ft 346kts
14-Jan-19 10:51 37.897957 -122.219554 1 14853ft 412kts
14-Jan-19 10:52 38.014367 -122.222679 1 18261ft 425kts
14-Jan-19 10:53 38.135754 -122.225804 1 20935ft 446kts
14-Jan-19 10:54 38.250656 -122.228777 2 23156ft 462kts
14-Jan-19 10:55 38.381821 -122.235088 359 25334ft 482kts
14-Jan-19 10:56 38.517783 -122.248608 358 27338ft 497kts
14-Jan-19 10:57 38.657190 -122.263140 358 29109ft 508kts
14-Jan-19 10:58 38.799248 -122.278008 358 30732ft 515kts
14-Jan-19 10:59 38.943402 -122.293143 358 32366ft 521kts
14-Jan-19 11:00 39.085824 -122.308209 358 34591ft 510kts
14-Jan-19 11:01 39.227220 -122.323151 357 36363ft 509kts
14-Jan-19 11:02 39.358342 -122.337080 357 37739ft 510kts
14-Jan-19 11:03 39.499792 -122.352114 357 38023ft 510kts
14-Jan-19 11:04 39.641340 -122.367365 357 38030ft 510kts
14-Jan-19 11:05 39.782838 -122.382512 357 38042ft 510kts
14-Jan-19 11:06 39.924102 -122.397764 357 38049ft 510kts
14-Jan-19 11:07 40.065222 -122.413083 357 38042ft 509kts
14-Jan-19 11:08 40.206571 -122.428508 357 38047ft 509kts
14-Jan-19 11:09 40.348042 -122.444037 357 38064ft 509kts
14-Jan-19 11:10 40.489189 -122.459585 357 38060ft 508kts
14-Jan-19 11:11 40.629968 -122.475002 357 38018ft 507kts
14-Jan-19 11:12 40.770706 -122.490626 357 38036ft 507kts
14-Jan-19 11:13 40.911161 -122.506241 357 38038ft 506kts
14-Jan-19 11:14 41.051442 -122.521894 357 38032ft 505kts
14-Jan-19 11:15 41.191374 -122.537621 357 38037ft 505kts
14-Jan-19 11:16 41.331718 -122.553455 357 38049ft 505kts
14-Jan-19 11:17 41.468686 -122.568971 357 38055ft 504kts
14-Jan-19 11:18 41.608616 -122.580492 359 38076ft 504kts
14-Jan-19 11:19 41.748848 -122.589774 359 38086ft 503kts
14-Jan-19 11:20 41.888995 -122.598927 359 38095ft 503kts
14-Jan-19 11:21 42.028749 -122.608122 359 38087ft 502kts
14-Jan-19 11:22 42.168296 -122.617524 359 38073ft 502kts
14-Jan-19 11:23 42.307045 -122.626665 359 38074ft 501kts
14-Jan-19 11:25 42.447147 -122.636047 359 38073ft 501kts
14-Jan-19 11:26 42.586358 -122.645401 359 38067ft 501kts
14-Jan-19 11:27 42.725622 -122.654765 359 38086ft 501kts
14-Jan-19 11:28 42.865025 -122.664227 359 38086ft 500kts
14-Jan-19 11:29 43.004073 -122.673769 359 38083ft 500kts
14-Jan-19 11:30 43.142554 -122.683140 359 38096ft 500kts
14-Jan-19 11:31 43.281866 -122.692765 359 38105ft 499kts
14-Jan-19 11:32 43.420177 -122.702276 359 38108ft 499kts
14-Jan-19 11:33 43.558865 -122.711773 359 38124ft 499kts
14-Jan-19 11:34 43.696077 -122.721383 0 37074ft 497kts
14-Jan-19 11:35 43.834228 -122.731058 1 35016ft 495kts
14-Jan-19 11:36 43.971774 -122.740653 1 33069ft 496kts
14-Jan-19 11:37 44.109384 -122.749159 4 31065ft 489kts
14-Jan-19 11:38 44.243246 -122.743347 8 29066ft 473kts
14-Jan-19 11:39 44.371449 -122.731434 9 27238ft 444kts
14-Jan-19 11:40 44.488951 -122.719822 9 25554ft 402kts
14-Jan-19 11:41 44.597589 -122.708981 10 24032ft 390kts
14-Jan-19 11:42 44.706982 -122.697845 9 21332ft 410kts
14-Jan-19 11:43 44.822085 -122.686329 8 18378ft 410kts
14-Jan-19 11:44 44.932579 -122.675263 8 15378ft 387kts
14-Jan-19 11:45 45.037264 -122.664665 7 12456ft 367kts
14-Jan-19 11:45 45.119287 -122.656388 7 10916ft 331kts
14-Jan-19 11:46 45.203877 -122.647780 8 10178ft 286kts
14-Jan-19 11:48 45.292697 -122.665287 339 8490ft 289kts
14-Jan-19 11:49 45.363402 -122.705369 342 7990ft 257kts
14-Jan-19 11:49 45.419125 -122.735940 342 7873ft 259kts
14-Jan-19 11:50 45.485510 -122.772443 343 6125ft 253kts
14-Jan-19 11:51 45.543403 -122.762724 19 4514ft 234kts
14-Jan-19 11:52 45.590195 -122.740619 26 2930ft 190kts
14-Jan-19 11:53 45.616910 -122.697126 95 1612ft 146kts
14-Jan-19 11:54 45.603990 -122.644779 116 422ft 128kts
14-Jan-19 11:55 45.588181 -122.603396 120 43ft 83kts
14-Jan-19 11:56 45.586729 -122.597182 26 43ft 1kts
14-Jan-19 11:57 45.589051 -122.600425 299 43ft 28kts
14-Jan-19 11:58 45.591111 -122.598626 117 43ft 15kts
14-Jan-19 11:59 45.590922 -122.596304 10 43ft 0kts
14-Jan-19 12:00 45.590981 -122.596292 8 43ft 0kts
14-Jan-19 12:01 45.590981 -122.596292 8 43ft 0kts

Navigation Log

Ident Type
Flight plan parsing failed, navigation log unavailable